Time;durP1;ratioP1;P1;durP2;ratioP2;P2;SDS_P1;SDS_P2;PMS_P1;PMS_P2;Temp;Humidity;BMP_temperature;BMP_pressure;BME280_temperature;BME280_humidity;BME280_pressure;Samples;Min_cycle;Max_cycle;Signal;HPM_P1;HPM_P2
2022/04/28 00:00:41;;;;;;;2.25;2.05;;;;;;;;;;5039085;28;20202;-56
2022/04/28 00:03:11;;;;;;;2.40;2.30;;;;;;;;;;5045426;28;20278;-56
2022/04/28 00:05:39;;;;;;;2.30;2.10;;;;;;;;;;5059234;28;20205;-56
2022/04/28 00:08:06;;;;;;;2.13;2.03;;;;;;;;;;5057977;28;20645;-56
2022/04/28 00:10:34;;;;;;;2.20;2.10;;;;;;;;;;5058522;28;20221;-56
2022/04/28 00:13:01;;;;;;;2.10;2.00;;;;;;;;;;5058523;28;20241;-56
2022/04/28 00:15:29;;;;;;;2.10;2.00;;;;;;;;;;5050907;28;20477;-56
2022/04/28 00:17:57;;;;;;;2.08;1.98;;;;;;;;;;5038860;28;20233;-56
2022/04/28 00:20:26;;;;;;;2.13;2.03;;;;;;;;;;5038796;28;20213;-56
2022/04/28 00:22:54;;;;;;;2.08;1.98;;;;;;;;;;5038658;28;20310;-56
2022/04/28 00:25:22;;;;;;;2.20;2.10;;;;;;;;;;5038727;28;20224;-56
2022/04/28 00:27:50;;;;;;;2.13;2.03;;;;;;;;;;5039464;28;20209;-56
2022/04/28 00:30:18;;;;;;;2.15;1.95;;;;;;;;;;5038831;28;20261;-56
2022/04/28 00:32:46;;;;;;;2.47;2.28;;;;;;;;;;5041732;28;20223;-56
2022/04/28 00:35:13;;;;;;;2.40;2.30;;;;;;;;;;5057986;28;20266;-56
2022/04/28 00:37:42;;;;;;;2.17;2.08;;;;;;;;;;5039713;28;20205;-56
2022/04/28 00:40:10;;;;;;;2.15;1.95;;;;;;;;;;5053746;28;20196;-56
2022/04/28 00:42:38;;;;;;;2.05;1.95;;;;;;;;;;5038631;28;20212;-56
2022/04/28 00:45:06;;;;;;;2.08;1.98;;;;;;;;;;5055176;28;20201;-56
2022/04/28 00:53:04;;;;;;;2.20;2.10;;;;;;;;;;5056689;28;20200;-56
2022/04/28 00:55:32;;;;;;;2.10;2.00;;;;;;;;;;5057805;28;20205;-56
2022/04/28 00:58:00;;;;;;;2.30;2.10;;;;;;;;;;5047751;28;20197;-56
2022/04/28 01:00:29;;;;;;;2.30;2.10;;;;;;;;;;5057565;28;20587;-56
2022/04/28 01:02:56;;;;;;;2.20;2.10;;;;;;;;;;5056777;28;20511;-56
2022/04/28 01:05:23;;;;;;;2.10;2.00;;;;;;;;;;5057143;28;20217;-56
2022/04/28 01:07:51;;;;;;;2.40;2.20;;;;;;;;;;5055602;28;20205;-56
2022/04/28 01:10:20;;;;;;;1.90;1.80;;;;;;;;;;5057006;28;20224;-56
2022/04/28 01:12:48;;;;;;;2.10;2.00;;;;;;;;;;5051246;28;20313;-56
2022/04/28 01:15:15;;;;;;;2.00;1.90;;;;;;;;;;5045120;28;20212;-56
2022/04/28 01:17:43;;;;;;;2.10;1.90;;;;;;;;;;5052106;28;20208;-56
2022/04/28 01:20:11;;;;;;;2.40;2.20;;;;;;;;;;5055877;28;20200;-56
2022/04/28 01:22:40;;;;;;;2.13;2.03;;;;;;;;;;5056362;28;20216;-56
2022/04/28 01:25:08;;;;;;;2.03;1.92;;;;;;;;;;5056311;28;20256;-56
2022/04/28 01:27:37;;;;;;;2.03;1.92;;;;;;;;;;5054713;28;20208;-56
2022/04/28 01:30:04;;;;;;;2.03;1.92;;;;;;;;;;5046128;28;20225;-56
2022/04/28 01:32:31;;;;;;;2.40;2.30;;;;;;;;;;5056768;28;20213;-56
2022/04/28 01:34:59;;;;;;;2.10;2.00;;;;;;;;;;5057292;28;20224;-56
2022/04/28 01:37:26;;;;;;;2.10;2.00;;;;;;;;;;5056726;28;20751;-56
2022/04/28 01:39:56;;;;;;;2.35;2.15;;;;;;;;;;5037110;28;20198;-56
2022/04/28 01:42:24;;;;;;;2.45;2.35;;;;;;;;;;5036842;28;20267;-56
2022/04/28 01:44:51;;;;;;;2.17;2.08;;;;;;;;;;5040203;28;20208;-56
2022/04/28 01:47:19;;;;;;;2.20;2.05;;;;;;;;;;5052633;28;20204;-56
2022/04/28 01:49:46;;;;;;;2.20;2.10;;;;;;;;;;5037701;28;20217;-56
2022/04/28 01:55:00;;;;;;;2.28;2.17;;;;;;;;;;5036603;28;20240;-56
2022/04/28 01:57:28;;;;;;;2.13;2.03;;;;;;;;;;5037890;28;20213;-56
2022/04/28 01:59:56;;;;;;;2.00;1.90;;;;;;;;;;5047658;28;20259;-56
2022/04/28 02:02:24;;;;;;;2.10;2.00;;;;;;;;;;5036611;28;20217;-56
2022/04/28 02:04:52;;;;;;;2.00;1.90;;;;;;;;;;5048205;28;20478;-56
2022/04/28 02:07:20;;;;;;;2.40;2.20;;;;;;;;;;5055680;28;20197;-56
2022/04/28 02:09:47;;;;;;;2.38;2.17;;;;;;;;;;5055912;28;20229;-56
2022/04/28 02:12:16;;;;;;;2.13;1.92;;;;;;;;;;5055658;28;20239;-56
2022/04/28 02:14:44;;;;;;;2.40;2.20;;;;;;;;;;5056003;28;20593;-56
2022/04/28 02:17:11;;;;;;;2.20;2.10;;;;;;;;;;5041665;28;20201;-56
2022/04/28 02:19:38;;;;;;;2.13;2.03;;;;;;;;;;5035641;28;20209;-56
2022/04/28 02:22:06;;;;;;;1.88;1.77;;;;;;;;;;5035883;28;20212;-56
2022/04/28 02:24:33;;;;;;;2.10;2.00;;;;;;;;;;5035767;28;20228;-56
2022/04/28 02:27:00;;;;;;;2.13;2.03;;;;;;;;;;5036222;28;20201;-56
2022/04/28 02:29:29;;;;;;;2.10;2.00;;;;;;;;;;5049178;28;20233;-56
2022/04/28 02:31:57;;;;;;;2.25;2.13;;;;;;;;;;5038299;28;20208;-56
2022/04/28 02:34:24;;;;;;;2.10;2.00;;;;;;;;;;5040905;28;20205;-56
2022/04/28 02:36:52;;;;;;;2.05;1.95;;;;;;;;;;5040711;28;20214;-56
2022/04/28 02:39:19;;;;;;;2.10;2.00;;;;;;;;;;5042366;28;20201;-56
2022/04/28 02:41:47;;;;;;;2.00;1.90;;;;;;;;;;5040404;28;20205;-56
2022/04/28 02:44:14;;;;;;;2.03;1.92;;;;;;;;;;5055581;28;20208;-56
2022/04/28 02:46:45;;;;;;;2.08;1.98;;;;;;;;;;5051674;28;20206;-56
2022/04/28 02:49:13;;;;;;;2.15;2.05;;;;;;;;;;5051977;28;20193;-56
2022/04/28 02:51:41;;;;;;;2.33;2.13;;;;;;;;;;5060113;28;20240;-56
2022/04/28 02:54:08;;;;;;;2.00;1.90;;;;;;;;;;5059823;28;20204;-56
2022/04/28 02:56:36;;;;;;;2.20;2.10;;;;;;;;;;5059775;28;20209;-57
2022/04/28 02:59:05;;;;;;;2.17;2.08;;;;;;;;;;5051860;28;20201;-56
2022/04/28 03:01:32;;;;;;;2.00;1.90;;;;;;;;;;5059481;28;20219;-56
2022/04/28 03:04:02;;;;;;;2.50;2.30;;;;;;;;;;5058653;28;20213;-56
2022/04/28 03:11:59;;;;;;;1.95;1.85;;;;;;;;;;5039365;28;20623;-56
2022/04/28 03:14:27;;;;;;;2.30;2.10;;;;;;;;;;5040060;28;20842;-56
2022/04/28 03:16:54;;;;;;;2.38;2.22;;;;;;;;;;5039745;28;20205;-58
2022/04/28 03:19:23;;;;;;;1.92;1.83;;;;;;;;;;5049989;28;20193;-56
2022/04/28 03:21:50;;;;;;;2.13;2.03;;;;;;;;;;5058778;28;20224;-56
2022/04/28 03:24:17;;;;;;;2.05;1.95;;;;;;;;;;5058486;28;20208;-56
2022/04/28 03:26:45;;;;;;;1.80;1.70;;;;;;;;;;5052032;28;20303;-56
2022/04/28 03:29:12;;;;;;;2.33;2.20;;;;;;;;;;5051426;28;20197;-56
2022/04/28 03:31:39;;;;;;;1.80;1.70;;;;;;;;;;5059259;28;20228;-56
2022/04/28 03:34:07;;;;;;;1.90;1.80;;;;;;;;;;5059091;28;20479;-56
2022/04/28 03:36:51;;;;;;;2.03;1.92;;;;;;;;;;5058687;28;20206;-56
2022/04/28 03:39:18;;;;;;;2.25;2.10;;;;;;;;;;5046502;28;20626;-56
2022/04/28 03:41:46;;;;;;;2.88;2.00;;;;;;;;;;5050489;28;20196;-56
2022/04/28 03:44:13;;;;;;;2.10;2.00;;;;;;;;;;5038246;28;20248;-56
2022/04/28 03:46:41;;;;;;;2.20;2.10;;;;;;;;;;5039040;28;20603;-56
2022/04/28 03:49:08;;;;;;;2.00;1.90;;;;;;;;;;5046368;28;20213;-56
2022/04/28 03:51:37;;;;;;;1.80;1.70;;;;;;;;;;5038446;28;20256;-56
2022/04/28 03:54:05;;;;;;;2.10;2.00;;;;;;;;;;5054378;28;20500;-56
2022/04/28 03:56:33;;;;;;;1.95;1.85;;;;;;;;;;5057848;28;20201;-56
2022/04/28 03:59:00;;;;;;;2.00;1.90;;;;;;;;;;5047618;28;20262;-56
2022/04/28 04:01:28;;;;;;;2.10;2.00;;;;;;;;;;5056029;28;20197;-56
2022/04/28 04:03:55;;;;;;;2.70;1.83;;;;;;;;;;5053326;28;20201;-56
2022/04/28 04:06:23;;;;;;;2.20;2.10;;;;;;;;;;5037647;28;20209;-56
2022/04/28 04:08:51;;;;;;;2.55;2.35;;;;;;;;;;5037275;28;20217;-56
2022/04/28 04:11:19;;;;;;;1.95;1.85;;;;;;;;;;5037456;28;20607;-56
2022/04/28 04:13:46;;;;;;;2.00;1.90;;;;;;;;;;5037570;28;20233;-56
2022/04/28 04:16:13;;;;;;;2.00;1.90;;;;;;;;;;5043781;28;20193;-56
2022/04/28 04:18:41;;;;;;;2.30;2.20;;;;;;;;;;5056975;28;20331;-56
2022/04/28 04:21:08;;;;;;;2.05;1.95;;;;;;;;;;5057541;28;20212;-56
2022/04/28 04:23:35;;;;;;;1.83;1.73;;;;;;;;;;5057282;28;20205;-56
2022/04/28 04:26:04;;;;;;;2.00;1.90;;;;;;;;;;5057054;28;20201;-56
2022/04/28 04:28:32;;;;;;;2.13;2.03;;;;;;;;;;5056850;28;20197;-56
2022/04/28 04:33:44;;;;;;;2.38;2.20;;;;;;;;;;5041469;28;20255;-56
2022/04/28 04:36:11;;;;;;;2.17;2.08;;;;;;;;;;5036940;28;20198;-56
2022/04/28 04:38:39;;;;;;;2.20;2.10;;;;;;;;;;5048803;28;20283;-56
2022/04/28 04:41:11;;;;;;;1.90;1.80;;;;;;;;;;5052665;28;20198;-56
2022/04/28 04:43:38;;;;;;;2.05;1.95;;;;;;;;;;5036846;28;20241;-56
2022/04/28 04:46:05;;;;;;;2.30;2.15;;;;;;;;;;5040183;28;20190;-56
2022/04/28 04:48:33;;;;;;;2.10;2.00;;;;;;;;;;5036221;28;20198;-56
2022/04/28 04:51:02;;;;;;;2.13;2.03;;;;;;;;;;5036286;28;20444;-56
2022/04/28 04:53:29;;;;;;;1.98;1.88;;;;;;;;;;5035625;28;20287;-56
2022/04/28 04:55:57;;;;;;;2.22;2.13;;;;;;;;;;5039601;28;20201;-56
2022/04/28 04:58:26;;;;;;;2.03;1.92;;;;;;;;;;5055327;28;20243;-56
2022/04/28 05:00:54;;;;;;;2.28;2.13;;;;;;;;;;5055658;28;20209;-56
2022/04/28 05:03:21;;;;;;;2.13;2.03;;;;;;;;;;5054405;28;20316;-56
2022/04/28 05:05:48;;;;;;;2.03;1.92;;;;;;;;;;5050928;28;20213;-56
2022/04/28 05:08:17;;;;;;;2.00;1.90;;;;;;;;;;5036040;28;20217;-56
2022/04/28 05:10:44;;;;;;;2.03;1.90;;;;;;;;;;5034869;28;20487;-56
2022/04/28 05:13:11;;;;;;;1.92;1.83;;;;;;;;;;5034828;28;20225;-56
2022/04/28 05:15:40;;;;;;;2.20;2.10;;;;;;;;;;5036409;28;20268;-56
2022/04/28 05:18:07;;;;;;;2.05;1.95;;;;;;;;;;5053774;28;20232;-56
2022/04/28 05:20:35;;;;;;;2.20;2.10;;;;;;;;;;5054451;28;20200;-56
2022/04/28 05:23:02;;;;;;;2.35;2.20;;;;;;;;;;5040965;28;20201;-56
2022/04/28 05:25:30;;;;;;;2.10;2.00;;;;;;;;;;5034678;28;20197;-56
2022/04/28 05:27:57;;;;;;;2.00;1.88;;;;;;;;;;5053678;28;20204;-56
2022/04/28 05:30:25;;;;;;;2.15;2.00;;;;;;;;;;5053146;28;20581;-56
2022/04/28 05:32:53;;;;;;;2.00;1.90;;;;;;;;;;5053507;28;20205;-56
2022/04/28 05:35:21;;;;;;;2.55;2.35;;;;;;;;;;5054682;28;20197;-56
2022/04/28 05:37:49;;;;;;;2.13;2.00;;;;;;;;;;5033743;28;20201;-56
2022/04/28 05:40:16;;;;;;;2.10;2.00;;;;;;;;;;5034284;28;20780;-56
2022/04/28 05:45:46;;;;;;;2.28;2.17;;;;;;;;;;5032882;28;20197;-57
2022/04/28 05:48:16;;;;;;;2.60;2.40;;;;;;;;;;5032654;28;20733;-56
2022/04/28 05:50:43;;;;;;;2.33;1.95;;;;;;;;;;5034474;28;20249;-56
2022/04/28 05:53:11;;;;;;;2.60;2.40;;;;;;;;;;5033972;28;20202;-56
2022/04/28 05:55:38;;;;;;;2.53;2.33;;;;;;;;;;5033088;28;20216;-56
2022/04/28 05:58:06;;;;;;;2.75;2.40;;;;;;;;;;5032297;28;20194;-56
2022/04/28 06:00:35;;;;;;;2.30;2.10;;;;;;;;;;5033486;28;20198;-56
2022/04/28 06:03:03;;;;;;;2.25;2.15;;;;;;;;;;5032509;28;20352;-56
2022/04/28 06:05:32;;;;;;;2.45;2.25;;;;;;;;;;5031879;28;20445;-56
2022/04/28 06:07:59;;;;;;;2.50;2.30;;;;;;;;;;5033265;28;20213;-57
2022/04/28 06:10:26;;;;;;;4.00;2.53;;;;;;;;;;5034742;28;20197;-56
2022/04/28 06:12:54;;;;;;;3.75;2.47;;;;;;;;;;5034234;28;20237;-56
2022/04/28 06:15:21;;;;;;;2.30;2.10;;;;;;;;;;5034487;28;20213;-56
2022/04/28 06:17:49;;;;;;;2.63;2.40;;;;;;;;;;5033281;28;20205;-56
2022/04/28 06:20:16;;;;;;;3.40;2.22;;;;;;;;;;5033675;28;20205;-63
2022/04/28 06:22:46;;;;;;;2.40;2.20;;;;;;;;;;5034290;28;20216;-56
2022/04/28 06:25:13;;;;;;;2.50;2.30;;;;;;;;;;5034190;28;20695;-56
2022/04/28 06:27:40;;;;;;;2.65;2.45;;;;;;;;;;5035223;28;20205;-57
2022/04/28 06:30:09;;;;;;;2.58;2.38;;;;;;;;;;5033583;28;20202;-56
2022/04/28 06:32:36;;;;;;;2.75;2.53;;;;;;;;;;5033485;28;20217;-56
2022/04/28 06:35:05;;;;;;;2.80;2.30;;;;;;;;;;5034136;28;20564;-57
2022/04/28 06:37:32;;;;;;;2.63;2.42;;;;;;;;;;5033736;28;20208;-56
2022/04/28 06:40:01;;;;;;;2.75;2.55;;;;;;;;;;5033928;28;20209;-56
2022/04/28 06:42:30;;;;;;;3.42;2.47;;;;;;;;;;5033110;28;20194;-56
2022/04/28 06:44:58;;;;;;;3.28;2.50;;;;;;;;;;5033164;28;20198;-56
2022/04/28 06:47:26;;;;;;;2.55;2.35;;;;;;;;;;5031728;28;20208;-56
2022/04/28 06:49:53;;;;;;;3.05;2.40;;;;;;;;;;5030556;28;20206;-56
2022/04/28 06:52:20;;;;;;;2.83;2.63;;;;;;;;;;5031172;28;20217;-56
2022/04/28 06:54:48;;;;;;;2.80;2.60;;;;;;;;;;5040734;28;20193;-56
2022/04/28 06:57:17;;;;;;;3.60;3.00;;;;;;;;;;5038852;28;20198;-56
2022/04/28 06:59:44;;;;;;;3.50;2.60;;;;;;;;;;5034153;28;20209;-56
2022/04/28 07:02:11;;;;;;;2.90;2.60;;;;;;;;;;5040999;28;20190;-57
2022/04/28 07:04:39;;;;;;;4.57;2.45;;;;;;;;;;5031895;28;20205;-56
2022/04/28 07:07:07;;;;;;;2.90;2.60;;;;;;;;;;5042607;28;20201;-56
2022/04/28 07:09:34;;;;;;;3.65;2.67;;;;;;;;;;5051029;28;20446;-56
2022/04/28 07:12:02;;;;;;;3.53;3.08;;;;;;;;;;5050239;28;20216;-57
2022/04/28 07:14:30;;;;;;;3.75;2.70;;;;;;;;;;5051039;28;20583;-56
2022/04/28 07:16:58;;;;;;;3.25;2.90;;;;;;;;;;5041447;28;20354;-56
2022/04/28 07:19:25;;;;;;;3.42;2.88;;;;;;;;;;5035385;28;20213;-56
2022/04/28 07:21:52;;;;;;;3.25;2.92;;;;;;;;;;5047391;28;20209;-56
2022/04/28 07:24:20;;;;;;;4.60;2.88;;;;;;;;;;5053459;28;20479;-56
2022/04/28 07:26:47;;;;;;;3.05;2.70;;;;;;;;;;5046091;28;20209;-56
2022/04/28 07:29:15;;;;;;;3.60;2.83;;;;;;;;;;5035697;28;20369;-56
2022/04/28 07:31:44;;;;;;;3.40;3.10;;;;;;;;;;5034398;28;20260;-56
2022/04/28 07:34:11;;;;;;;3.13;2.88;;;;;;;;;;5052890;28;20220;-56
2022/04/28 07:36:39;;;;;;;3.80;2.50;;;;;;;;;;5041160;28;20199;-56
2022/04/28 07:39:06;;;;;;;3.42;3.13;;;;;;;;;;5054426;28;20193;-56
2022/04/28 07:41:34;;;;;;;3.35;3.05;;;;;;;;;;5053394;28;20562;-56
2022/04/28 07:44:01;;;;;;;2.78;2.58;;;;;;;;;;5039094;28;20209;-57
2022/04/28 07:46:28;;;;;;;3.47;2.83;;;;;;;;;;5040426;28;20216;-57
2022/04/28 07:48:57;;;;;;;3.53;3.05;;;;;;;;;;5054676;28;20201;-56
2022/04/28 07:51:25;;;;;;;3.28;2.97;;;;;;;;;;5054616;28;20295;-56
2022/04/28 07:53:52;;;;;;;3.13;2.83;;;;;;;;;;5054893;28;20358;-56
2022/04/28 07:56:20;;;;;;;3.20;2.92;;;;;;;;;;5049938;28;20201;-56
2022/04/28 07:58:48;;;;;;;3.17;2.80;;;;;;;;;;5046227;28;20208;-56
2022/04/28 08:01:16;;;;;;;3.20;2.88;;;;;;;;;;5041666;28;20200;-56
2022/04/28 08:03:43;;;;;;;3.35;2.80;;;;;;;;;;5054022;28;20205;-56
2022/04/28 08:06:13;;;;;;;4.18;3.05;;;;;;;;;;5055089;28;20201;-56
2022/04/28 08:08:43;;;;;;;2.90;2.70;;;;;;;;;;5054901;28;20228;-56
2022/04/28 08:11:12;;;;;;;3.40;3.10;;;;;;;;;;5055641;28;20193;-56
2022/04/28 08:13:40;;;;;;;3.95;3.00;;;;;;;;;;5054690;28;20519;-56
2022/04/28 08:16:07;;;;;;;3.13;2.83;;;;;;;;;;5054949;28;20201;-56
2022/04/28 08:18:36;;;;;;;2.95;2.63;;;;;;;;;;5054793;28;20201;-56
2022/04/28 08:21:04;;;;;;;3.10;2.80;;;;;;;;;;5053517;28;20205;-56
2022/04/28 08:23:32;;;;;;;3.55;3.08;;;;;;;;;;5051984;28;20216;-56
2022/04/28 08:26:00;;;;;;;3.03;2.72;;;;;;;;;;5054433;28;20216;-56
2022/04/28 08:28:27;;;;;;;3.00;2.80;;;;;;;;;;5035756;28;20513;-56
2022/04/28 08:30:55;;;;;;;3.30;3.00;;;;;;;;;;5052055;28;20200;-56
2022/04/28 08:33:22;;;;;;;3.13;2.78;;;;;;;;;;5054122;28;20213;-56
2022/04/28 08:35:49;;;;;;;3.10;2.55;;;;;;;;;;5045760;28;20598;-56
2022/04/28 08:38:17;;;;;;;3.53;3.00;;;;;;;;;;5050757;28;20401;-56
2022/04/28 08:40:48;;;;;;;2.90;2.70;;;;;;;;;;5051182;28;20610;-56
2022/04/28 08:43:16;;;;;;;2.60;2.40;;;;;;;;;;5032973;28;20233;-56
2022/04/28 08:48:28;;;;;;;3.17;2.90;;;;;;;;;;5032299;28;20205;-56
2022/04/28 08:50:56;;;;;;;2.95;2.75;;;;;;;;;;5033431;28;20216;-56
2022/04/28 08:53:23;;;;;;;2.85;2.58;;;;;;;;;;5032004;28;20283;-56
2022/04/28 08:55:57;;;;;;;2.90;2.70;;;;;;;;;;5033922;28;20210;-56
2022/04/28 08:58:24;;;;;;;2.95;2.75;;;;;;;;;;5049171;28;20190;-56
2022/04/28 09:00:54;;;;;;;2.88;2.67;;;;;;;;;;5012672;28;20225;-56
2022/04/28 09:03:21;;;;;;;3.00;2.80;;;;;;;;;;5012994;28;20233;-56
2022/04/28 09:05:49;;;;;;;3.03;2.75;;;;;;;;;;5015785;28;20822;-56
2022/04/28 09:08:17;;;;;;;2.75;2.55;;;;;;;;;;5014699;28;20409;-56
2022/04/28 09:10:45;;;;;;;3.03;2.83;;;;;;;;;;5014340;28;20225;-56
2022/04/28 09:16:00;;;;;;;3.28;2.97;;;;;;;;;;4987670;28;20513;-56
2022/04/28 09:18:28;;;;;;;3.05;2.83;;;;;;;;;;5027158;28;20209;-56
2022/04/28 09:20:56;;;;;;;3.20;2.90;;;;;;;;;;5011727;28;20210;-56
2022/04/28 09:23:25;;;;;;;2.67;2.47;;;;;;;;;;5016730;28;20193;-56
2022/04/28 09:25:56;;;;;;;3.00;2.72;;;;;;;;;;5035197;28;20241;-56
2022/04/28 09:28:26;;;;;;;3.63;2.65;;;;;;;;;;5024643;28;20200;-57
2022/04/28 09:30:53;;;;;;;3.28;2.85;;;;;;;;;;5022766;28;20233;-56
2022/04/28 09:33:22;;;;;;;3.58;3.08;;;;;;;;;;5014467;28;20680;-56
2022/04/28 09:35:50;;;;;;;3.70;2.88;;;;;;;;;;5012886;28;20225;-56
2022/04/28 09:38:17;;;;;;;3.50;3.05;;;;;;;;;;5016049;28;20221;-55
2022/04/28 09:43:33;;;;;;;4.20;3.33;;;;;;;;;;5031171;28;20251;-56
2022/04/28 09:46:01;;;;;;;3.90;3.47;;;;;;;;;;5013450;28;20210;-56
2022/04/28 09:48:30;;;;;;;3.13;2.88;;;;;;;;;;5032748;28;20203;-56
2022/04/28 09:51:03;;;;;;;6.07;3.05;;;;;;;;;;5032675;28;20202;-56
2022/04/28 09:53:34;;;;;;;4.13;3.10;;;;;;;;;;5032438;28;20229;-56
2022/04/28 09:56:02;;;;;;;3.58;3.20;;;;;;;;;;5032441;28;20203;-56
2022/04/28 09:58:32;;;;;;;6.95;3.38;;;;;;;;;;5031331;28;20595;-56
2022/04/28 10:01:01;;;;;;;7.30;3.55;;;;;;;;;;5022473;28;20697;-56
2022/04/28 10:03:30;;;;;;;4.95;3.53;;;;;;;;;;5033258;28;20212;-56
2022/04/28 10:05:58;;;;;;;6.00;3.78;;;;;;;;;;5031073;28;20205;-56
2022/04/28 10:08:26;;;;;;;5.80;3.45;;;;;;;;;;5029672;28;20198;-56
2022/04/28 10:10:56;;;;;;;6.38;4.05;;;;;;;;;;5013754;28;20202;-56
2022/04/28 10:13:24;;;;;;;6.60;3.78;;;;;;;;;;5013608;28;20273;-56
2022/04/28 10:15:56;;;;;;;7.05;3.72;;;;;;;;;;5013658;28;20233;-56
2022/04/28 10:18:25;;;;;;;7.45;3.90;;;;;;;;;;5013282;28;20203;-56
2022/04/28 10:20:58;;;;;;;4.72;3.45;;;;;;;;;;5013455;28;20213;-56
2022/04/28 10:34:34;;;;;;;7.10;3.83;;;;;;;;;;5021859;28;20200;-57
2022/04/28 10:37:05;;;;;;;6.68;3.90;;;;;;;;;;5010142;28;20596;-57
2022/04/28 10:39:42;;;;;;;5.57;3.92;;;;;;;;;;5012304;28;20431;-57
2022/04/28 10:42:13;;;;;;;5.80;3.67;;;;;;;;;;5010611;28;20320;-56
2022/04/28 10:44:42;;;;;;;6.80;3.92;;;;;;;;;;5009660;28;20214;-56
2022/04/28 10:47:22;;;;;;;6.82;3.58;;;;;;;;;;5010341;28;20206;-57
2022/04/28 10:49:53;;;;;;;6.00;3.90;;;;;;;;;;5015292;28;20430;-57
2022/04/28 10:52:23;;;;;;;6.35;3.72;;;;;;;;;;5029427;28;20221;-57
2022/04/28 10:54:53;;;;;;;4.97;3.63;;;;;;;;;;5033388;28;20275;-57
2022/04/28 10:57:29;;;;;;;5.22;3.65;;;;;;;;;;5033003;28;20592;-57
2022/04/28 10:59:56;;;;;;;5.88;3.70;;;;;;;;;;5017005;28;20262;-56
2022/04/28 11:02:41;;;;;;;4.93;3.65;;;;;;;;;;5032814;28;20611;-56
2022/04/28 11:05:26;;;;;;;7.18;3.75;;;;;;;;;;5015869;28;20202;-56
2022/04/28 11:07:54;;;;;;;5.85;3.78;;;;;;;;;;5019237;28;20625;-57
2022/04/28 11:10:21;;;;;;;6.25;3.70;;;;;;;;;;5020430;28;20389;-57
2022/04/28 11:12:50;;;;;;;5.90;4.00;;;;;;;;;;5027308;28;20446;-57
2022/04/28 11:15:17;;;;;;;5.18;3.22;;;;;;;;;;5035698;28;20259;-57
2022/04/28 11:17:46;;;;;;;4.53;3.60;;;;;;;;;;5033598;28;20203;-57
2022/04/28 11:20:14;;;;;;;7.72;3.53;;;;;;;;;;5022366;28;20623;-56
2022/04/28 11:22:42;;;;;;;6.00;3.95;;;;;;;;;;5030543;28;20354;-56
2022/04/28 11:25:12;;;;;;;8.05;3.63;;;;;;;;;;5022618;28;20208;-56
2022/04/28 11:27:40;;;;;;;6.75;4.10;;;;;;;;;;5031872;28;20315;-57
2022/04/28 11:30:11;;;;;;;6.20;4.15;;;;;;;;;;5020279;28;20198;-57
2022/04/28 11:32:50;;;;;;;5.78;3.70;;;;;;;;;;5033423;28;20639;-57
2022/04/28 11:35:18;;;;;;;6.90;3.70;;;;;;;;;;5034091;28;20406;-56
2022/04/28 11:37:46;;;;;;;4.13;3.60;;;;;;;;;;5032704;28;20201;-56
2022/04/28 11:40:16;;;;;;;8.05;3.72;;;;;;;;;;5018196;28;20199;-56
2022/04/28 11:42:44;;;;;;;4.43;3.47;;;;;;;;;;5026571;28;20202;-56
2022/04/28 11:45:12;;;;;;;5.95;3.60;;;;;;;;;;5015540;28;20280;-56
2022/04/28 11:47:44;;;;;;;4.95;3.58;;;;;;;;;;5015630;28;20586;-57
2022/04/28 11:50:21;;;;;;;4.78;3.35;;;;;;;;;;5029426;28;20529;-56
2022/04/28 11:52:59;;;;;;;4.85;3.70;;;;;;;;;;5021996;28;20225;-57
2022/04/28 11:55:28;;;;;;;6.47;3.70;;;;;;;;;;5035626;28;20202;-57
2022/04/28 11:57:56;;;;;;;4.80;3.40;;;;;;;;;;5033976;28;20501;-57
2022/04/28 12:00:25;;;;;;;4.50;3.75;;;;;;;;;;5021250;28;20527;-57
2022/04/28 12:02:53;;;;;;;6.32;3.70;;;;;;;;;;5032186;28;20889;-56
2022/04/28 12:05:23;;;;;;;5.50;3.78;;;;;;;;;;5017972;28;20319;-56
2022/04/28 12:07:55;;;;;;;5.80;3.58;;;;;;;;;;5012438;28;20301;-56
2022/04/28 12:15:57;;;;;;;5.75;3.35;;;;;;;;;;5013407;28;20431;-56
2022/04/28 12:21:21;;;;;;;5.32;3.40;;;;;;;;;;5032743;28;20189;-57
2022/04/28 12:23:50;;;;;;;5.45;3.05;;;;;;;;;;5033050;28;20296;-57
2022/04/28 12:26:20;;;;;;;4.75;3.38;;;;;;;;;;5031567;28;20360;-57
2022/04/28 12:28:48;;;;;;;4.60;3.20;;;;;;;;;;5024216;28;20524;-57
2022/04/28 12:31:16;;;;;;;4.88;3.38;;;;;;;;;;5011731;28;20580;-56
2022/04/28 12:33:47;;;;;;;5.38;3.47;;;;;;;;;;5025005;28;20217;-57
2022/04/28 12:36:14;;;;;;;4.05;3.30;;;;;;;;;;5017216;28;20259;-57
2022/04/28 12:38:48;;;;;;;4.15;3.13;;;;;;;;;;5022137;28;20201;-56
2022/04/28 12:41:16;;;;;;;5.00;2.92;;;;;;;;;;5027808;28;20628;-56
2022/04/28 12:43:46;;;;;;;3.28;2.88;;;;;;;;;;5021475;28;20288;-57
2022/04/28 12:46:15;;;;;;;5.10;3.15;;;;;;;;;;5032363;28;20287;-57
2022/04/28 12:48:42;;;;;;;3.67;3.17;;;;;;;;;;5022016;28;20593;-56
2022/04/28 12:51:17;;;;;;;3.25;2.95;;;;;;;;;;5013167;28;20264;-57
2022/04/28 12:53:48;;;;;;;4.85;3.17;;;;;;;;;;5010892;28;20229;-57
2022/04/28 12:56:16;;;;;;;4.82;3.35;;;;;;;;;;5011269;28;20198;-56
2022/04/28 12:58:44;;;;;;;3.85;3.25;;;;;;;;;;5020834;28;20201;-57
2022/04/28 13:01:12;;;;;;;5.90;3.30;;;;;;;;;;5031803;28;20657;-57
2022/04/28 13:03:40;;;;;;;3.88;3.20;;;;;;;;;;5031225;28;20361;-57
2022/04/28 13:06:08;;;;;;;4.35;3.03;;;;;;;;;;5031763;28;20225;-57
2022/04/28 13:08:36;;;;;;;3.40;3.10;;;;;;;;;;5023233;28;20580;-56
2022/04/28 13:11:05;;;;;;;4.55;3.40;;;;;;;;;;5030067;28;20202;-56
2022/04/28 13:13:32;;;;;;;3.75;3.28;;;;;;;;;;5029863;28;20233;-57
2022/04/28 13:16:00;;;;;;;4.15;3.15;;;;;;;;;;5016737;28;20202;-56
2022/04/28 13:18:27;;;;;;;3.50;3.20;;;;;;;;;;5016366;28;20198;-57
2022/04/28 13:20:55;;;;;;;3.05;2.75;;;;;;;;;;5013338;28;20485;-57
2022/04/28 13:23:22;;;;;;;4.07;3.10;;;;;;;;;;5015799;28;20201;-56
2022/04/28 13:25:49;;;;;;;3.47;2.90;;;;;;;;;;5020999;28;20544;-56
2022/04/28 13:28:18;;;;;;;3.67;2.90;;;;;;;;;;5030763;28;20523;-57
2022/04/28 13:30:46;;;;;;;3.67;2.95;;;;;;;;;;5014251;28;20229;-56
2022/04/28 13:33:13;;;;;;;4.05;3.30;;;;;;;;;;5011106;28;20394;-57
2022/04/28 13:35:40;;;;;;;5.68;3.15;;;;;;;;;;5010720;28;20202;-57
2022/04/28 13:38:10;;;;;;;4.38;3.40;;;;;;;;;;5013683;28;20206;-57
2022/04/28 13:40:37;;;;;;;5.72;3.08;;;;;;;;;;5012946;28;20213;-57
2022/04/28 13:43:06;;;;;;;4.07;2.63;;;;;;;;;;5015873;28;20218;-56
2022/04/28 13:45:35;;;;;;;5.93;3.20;;;;;;;;;;5013624;28;20202;-55
2022/04/28 13:48:02;;;;;;;4.53;3.35;;;;;;;;;;5028049;28;20205;-55
2022/04/28 13:50:30;;;;;;;4.43;3.28;;;;;;;;;;5012844;28;20580;-55
2022/04/28 13:52:57;;;;;;;4.78;3.03;;;;;;;;;;5013146;28;20205;-55
2022/04/28 13:55:25;;;;;;;6.10;3.22;;;;;;;;;;5012132;28;20194;-55
2022/04/28 13:57:52;;;;;;;3.60;3.30;;;;;;;;;;5019835;28;20641;-55
2022/04/28 14:00:21;;;;;;;3.50;2.88;;;;;;;;;;5015703;28;20213;-56
2022/04/28 14:02:50;;;;;;;4.88;3.20;;;;;;;;;;5015839;28;20543;-55
2022/04/28 14:05:18;;;;;;;5.22;3.30;;;;;;;;;;5032537;28;20206;-55
2022/04/28 14:07:46;;;;;;;4.65;3.60;;;;;;;;;;5032461;28;20604;-55
2022/04/28 14:10:16;;;;;;;3.97;3.28;;;;;;;;;;5032208;28;20481;-55
2022/04/28 14:12:45;;;;;;;5.10;3.13;;;;;;;;;;5031471;28;20245;-55
2022/04/28 14:15:16;;;;;;;5.28;3.30;;;;;;;;;;5026230;28;20381;-55
2022/04/28 14:17:44;;;;;;;5.32;3.72;;;;;;;;;;5012201;28;20225;-55
2022/04/28 14:20:13;;;;;;;6.65;3.80;;;;;;;;;;5011620;28;20289;-55
2022/04/28 14:22:41;;;;;;;5.60;3.90;;;;;;;;;;5011901;28;20198;-55
2022/04/28 14:25:09;;;;;;;4.00;3.58;;;;;;;;;;5011574;28;20209;-55
2022/04/28 14:27:37;;;;;;;5.72;3.90;;;;;;;;;;5011400;28;20202;-55
2022/04/28 14:30:06;;;;;;;4.20;3.80;;;;;;;;;;5027167;28;20225;-55
2022/04/28 14:32:33;;;;;;;3.92;3.53;;;;;;;;;;5031777;28;20275;-55
2022/04/28 14:35:01;;;;;;;5.03;3.88;;;;;;;;;;5028799;28;20217;-55
2022/04/28 14:37:29;;;;;;;3.75;3.45;;;;;;;;;;5011840;28;20206;-55
2022/04/28 14:39:57;;;;;;;3.97;3.67;;;;;;;;;;5026508;28;20209;-55
2022/04/28 14:42:24;;;;;;;3.85;3.55;;;;;;;;;;5032022;28;20296;-55
2022/04/28 14:44:51;;;;;;;3.85;3.55;;;;;;;;;;5031370;28;20190;-55
2022/04/28 14:47:19;;;;;;;3.75;3.45;;;;;;;;;;5021607;28;20198;-55
2022/04/28 14:52:33;;;;;;;3.75;3.45;;;;;;;;;;5030791;28;20745;-55
2022/04/28 14:55:02;;;;;;;4.10;3.70;;;;;;;;;;5013083;28;20809;-55
2022/04/28 14:57:30;;;;;;;3.90;3.60;;;;;;;;;;5011232;28;20227;-55
2022/04/28 14:59:58;;;;;;;3.63;3.40;;;;;;;;;;5012953;28;20210;-56
2022/04/28 15:02:26;;;;;;;4.30;3.75;;;;;;;;;;5011600;28;20203;-56
2022/04/28 15:04:54;;;;;;;3.47;3.28;;;;;;;;;;5019707;28;20221;-56
2022/04/28 15:07:22;;;;;;;3.90;3.60;;;;;;;;;;5030281;28;20194;-56
2022/04/28 15:09:51;;;;;;;4.05;3.75;;;;;;;;;;5017029;28;20225;-55
2022/04/28 15:12:18;;;;;;;3.97;3.67;;;;;;;;;;5012359;28;20238;-56
2022/04/28 15:14:46;;;;;;;4.07;3.67;;;;;;;;;;5015026;28;20692;-56
2022/04/28 15:17:14;;;;;;;4.60;4.20;;;;;;;;;;5017623;28;20198;-56
2022/04/28 15:19:42;;;;;;;4.63;4.18;;;;;;;;;;5017629;28;20257;-56
2022/04/28 15:22:09;;;;;;;5.85;3.88;;;;;;;;;;5011063;28;20615;-56
2022/04/28 15:24:38;;;;;;;4.10;3.80;;;;;;;;;;5026203;28;20599;-56
2022/04/28 15:27:07;;;;;;;4.30;3.90;;;;;;;;;;5030813;28;20265;-56
2022/04/28 15:29:34;;;;;;;4.28;3.97;;;;;;;;;;5019127;28;20213;-56
2022/04/28 15:32:01;;;;;;;4.18;3.85;;;;;;;;;;5010447;28;20202;-56
2022/04/28 15:34:29;;;;;;;4.55;4.13;;;;;;;;;;5012516;28;20226;-58
2022/04/28 15:36:57;;;;;;;4.20;3.90;;;;;;;;;;5012056;28;20321;-56
2022/04/28 15:39:24;;;;;;;4.40;3.92;;;;;;;;;;5023154;28;20212;-56